sensor_id;sensor_type;location;lat;lon;timestamp;pressure;altitude;pressure_sealevel;temperature
73734;BMP280;62039;50.000;9.064;2023-02-19T00:01:19;100727.50;;;9.33
73734;BMP280;62039;50.000;9.064;2023-02-19T00:03:48;100736.16;;;9.33
73734;BMP280;62039;50.000;9.064;2023-02-19T00:06:15;100731.63;;;9.35
73734;BMP280;62039;50.000;9.064;2023-02-19T00:08:41;100735.06;;;9.36
73734;BMP280;62039;50.000;9.064;2023-02-19T00:11:10;100729.84;;;9.36
73734;BMP280;62039;50.000;9.064;2023-02-19T00:13:38;100733.41;;;9.35
73734;BMP280;62039;50.000;9.064;2023-02-19T00:16:07;100729.84;;;9.36
73734;BMP280;62039;50.000;9.064;2023-02-19T00:18:34;100733.41;;;9.35
73734;BMP280;62039;50.000;9.064;2023-02-19T00:21:01;100731.63;;;9.35
73734;BMP280;62039;50.000;9.064;2023-02-19T00:23:28;100723.13;;;9.33
73734;BMP280;62039;50.000;9.064;2023-02-19T00:25:55;100723.13;;;9.33
73734;BMP280;62039;50.000;9.064;2023-02-19T00:28:28;100723.13;;;9.33
73734;BMP280;62039;50.000;9.064;2023-02-19T00:30:55;100717.78;;;9.35
73734;BMP280;62039;50.000;9.064;2023-02-19T00:33:23;100703.78;;;9.36
73734;BMP280;62039;50.000;9.064;2023-02-19T00:35:49;100693.34;;;9.36
73734;BMP280;62039;50.000;9.064;2023-02-19T00:38:16;100688.41;;;9.33
73734;BMP280;62039;50.000;9.064;2023-02-19T00:40:42;100689.53;;;9.30
73734;BMP280;62039;50.000;9.064;2023-02-19T00:43:09;100700.22;;;9.27
73734;BMP280;62039;50.000;9.064;2023-02-19T00:45:35;100691.44;;;9.28
73734;BMP280;62039;50.000;9.064;2023-02-19T00:48:02;100699.13;;;9.30
73734;BMP280;62039;50.000;9.064;2023-02-19T00:50:30;100694.75;;;9.30
73734;BMP280;62039;50.000;9.064;2023-02-19T00:52:57;100699.97;;;9.30
73734;BMP280;62039;50.000;9.064;2023-02-19T00:55:23;100703.22;;;9.32
73734;BMP280;62039;50.000;9.064;2023-02-19T00:57:50;100705.00;;;9.32
73734;BMP280;62039;50.000;9.064;2023-02-19T01:00:16;100702.41;;;9.32
73734;BMP280;62039;50.000;9.064;2023-02-19T01:02:43;100711.03;;;9.32
73734;BMP280;62039;50.000;9.064;2023-02-19T01:05:09;100715.44;;;9.32
73734;BMP280;62039;50.000;9.064;2023-02-19T01:07:37;100703.22;;;9.32
73734;BMP280;62039;50.000;9.064;2023-02-19T01:10:05;100694.75;;;9.30
73734;BMP280;62039;50.000;9.064;2023-02-19T01:12:31;100698.44;;;9.28
73734;BMP280;62039;50.000;9.064;2023-02-19T01:14:58;100690.75;;;9.26
73734;BMP280;62039;50.000;9.064;2023-02-19T01:17:24;100694.50;;;9.24
73734;BMP280;62039;50.000;9.064;2023-02-19T01:19:51;100688.47;;;9.23
73734;BMP280;62039;50.000;9.064;2023-02-19T01:22:18;100693.81;;;9.22
73734;BMP280;62039;50.000;9.064;2023-02-19T01:24:45;100685.03;;;9.23
73734;BMP280;62039;50.000;9.064;2023-02-19T01:27:12;100679.00;;;9.22
73734;BMP280;62039;50.000;9.064;2023-02-19T01:29:39;100672.00;;;9.23
73734;BMP280;62039;50.000;9.064;2023-02-19T01:32:05;100679.94;;;9.21
73734;BMP280;62039;50.000;9.064;2023-02-19T01:34:32;100683.50;;;9.20
73734;BMP280;62039;50.000;9.064;2023-02-19T01:36:58;100668.84;;;9.19
73734;BMP280;62039;50.000;9.064;2023-02-19T01:39:25;100659.38;;;9.18
73734;BMP280;62039;50.000;9.064;2023-02-19T01:41:53;100671.75;;;9.16
73734;BMP280;62039;50.000;9.064;2023-02-19T01:47:23;100666.94;;;9.12
73734;BMP280;62039;50.000;9.064;2023-02-19T01:49:53;100665.97;;;9.13
73734;BMP280;62039;50.000;9.064;2023-02-19T01:52:24;100673.78;;;9.13
73734;BMP280;62039;50.000;9.064;2023-02-19T01:54:52;100663.38;;;9.13
73734;BMP280;62039;50.000;9.064;2023-02-19T01:57:24;100645.25;;;9.11
73734;BMP280;62039;50.000;9.064;2023-02-19T01:59:53;100665.16;;;9.12
73734;BMP280;62039;50.000;9.064;2023-02-19T02:02:22;100649.50;;;9.12
73734;BMP280;62039;50.000;9.064;2023-02-19T02:04:48;100656.38;;;9.13
73734;BMP280;62039;50.000;9.064;2023-02-19T02:07:15;100648.56;;;9.13
73734;BMP280;62039;50.000;9.064;2023-02-19T02:09:42;100647.88;;;9.11
73734;BMP280;62039;50.000;9.064;2023-02-19T02:12:08;100649.66;;;9.11
73734;BMP280;62039;50.000;9.064;2023-02-19T02:14:38;100652.25;;;9.11
73734;BMP280;62039;50.000;9.064;2023-02-19T02:17:12;100644.28;;;9.12
73734;BMP280;62039;50.000;9.064;2023-02-19T02:20:11;100642.81;;;9.10
73734;BMP280;62039;50.000;9.064;2023-02-19T02:22:43;100636.78;;;9.09
73734;BMP280;62039;50.000;9.064;2023-02-19T02:25:39;100634.44;;;9.06
73734;BMP280;62039;50.000;9.064;2023-02-19T02:28:22;100631.97;;;9.04
73734;BMP280;62039;50.000;9.064;2023-02-19T02:30:55;100625.28;;;9.02
73734;BMP280;62039;50.000;9.064;2023-02-19T02:33:28;100629.00;;;8.99
73734;BMP280;62039;50.000;9.064;2023-02-19T02:35:58;100623.09;;;8.97
73734;BMP280;62039;50.000;9.064;2023-02-19T02:38:29;100626.00;;;8.94
73734;BMP280;62039;50.000;9.064;2023-02-19T02:40:57;100611.44;;;8.92
73734;BMP280;62039;50.000;9.064;2023-02-19T02:43:24;100628.22;;;8.89
73734;BMP280;62039;50.000;9.064;2023-02-19T02:45:50;100617.09;;;8.87
73734;BMP280;62039;50.000;9.064;2023-02-19T02:48:27;100614.50;;;8.87
73734;BMP280;62039;50.000;9.064;2023-02-19T02:50:58;100620.38;;;8.89
73734;BMP280;62039;50.000;9.064;2023-02-19T02:53:30;100613.41;;;8.90
73734;BMP280;62039;50.000;9.064;2023-02-19T02:55:58;100635.03;;;8.90
73734;BMP280;62039;50.000;9.064;2023-02-19T02:58:27;100618.59;;;8.90
73734;BMP280;62039;50.000;9.064;2023-02-19T03:00:57;100619.41;;;8.90
73734;BMP280;62039;50.000;9.064;2023-02-19T03:03:27;100603.78;;;8.90
73734;BMP280;62039;50.000;9.064;2023-02-19T03:05:57;100612.41;;;8.91
73734;BMP280;62039;50.000;9.064;2023-02-19T03:08:28;100612.41;;;8.91
73734;BMP280;62039;50.000;9.064;2023-02-19T03:10:59;100614.19;;;8.90
73734;BMP280;62039;50.000;9.064;2023-02-19T03:13:31;100596.94;;;8.89
73734;BMP280;62039;50.000;9.064;2023-02-19T03:16:03;100584.75;;;8.90
73734;BMP280;62039;50.000;9.064;2023-02-19T03:18:34;100591.72;;;8.89
73734;BMP280;62039;50.000;9.064;2023-02-19T03:21:03;100603.13;;;8.88
73734;BMP280;62039;50.000;9.064;2023-02-19T03:23:32;100598.03;;;8.87
73734;BMP280;62039;50.000;9.064;2023-02-19T03:26:00;100598.16;;;8.85
73734;BMP280;62039;50.000;9.064;2023-02-19T03:28:29;100592.31;;;8.83
73734;BMP280;62039;50.000;9.064;2023-02-19T03:30:57;100594.09;;;8.83
73734;BMP280;62039;50.000;9.064;2023-02-19T03:33:26;100593.25;;;8.82
73734;BMP280;62039;50.000;9.064;2023-02-19T03:35:59;100592.56;;;8.80
73734;BMP280;62039;50.000;9.064;2023-02-19T03:38:30;100596.13;;;8.79
73734;BMP280;62039;50.000;9.064;2023-02-19T03:41:08;100613.41;;;8.80
73734;BMP280;62039;50.000;9.064;2023-02-19T03:43:39;100597.53;;;8.83
73734;BMP280;62039;50.000;9.064;2023-02-19T03:46:10;100605.16;;;8.85
73734;BMP280;62039;50.000;9.064;2023-02-19T03:48:44;100605.03;;;8.86
73734;BMP280;62039;50.000;9.064;2023-02-19T03:51:26;100604.06;;;8.87
73734;BMP280;62039;50.000;9.064;2023-02-19T03:54:01;100605.72;;;8.88
73734;BMP280;62039;50.000;9.064;2023-02-19T03:56:34;100602.28;;;8.88
73734;BMP280;62039;50.000;9.064;2023-02-19T03:59:08;100601.34;;;8.89
73734;BMP280;62039;50.000;9.064;2023-02-19T04:01:38;100602.16;;;8.89
73734;BMP280;62039;50.000;9.064;2023-02-19T04:04:09;100612.56;;;8.89
73734;BMP280;62039;50.000;9.064;2023-02-19T04:06:41;100614.50;;;8.87
73734;BMP280;62039;50.000;9.064;2023-02-19T04:09:10;100624.78;;;8.89
73734;BMP280;62039;50.000;9.064;2023-02-19T04:11:39;100635.03;;;8.90
73734;BMP280;62039;50.000;9.064;2023-02-19T04:14:09;100621.75;;;8.93
73734;BMP280;62039;50.000;9.064;2023-02-19T04:16:40;100620.78;;;8.94
73734;BMP280;62039;50.000;9.064;2023-02-19T04:19:12;100610.34;;;8.94
73734;BMP280;62039;50.000;9.064;2023-02-19T04:21:43;100613.91;;;8.93
73734;BMP280;62039;50.000;9.064;2023-02-19T04:24:13;100621.75;;;8.93
73734;BMP280;62039;50.000;9.064;2023-02-19T04:26:42;100609.66;;;8.92
73734;BMP280;62039;50.000;9.064;2023-02-19T04:29:10;100608.03;;;8.91
73734;BMP280;62039;50.000;9.064;2023-02-19T04:31:36;100617.47;;;8.92
73734;BMP280;62039;50.000;9.064;2023-02-19T04:34:03;100612.28;;;8.92
73734;BMP280;62039;50.000;9.064;2023-02-19T04:36:30;100615.03;;;8.91
73734;BMP280;62039;50.000;9.064;2023-02-19T04:38:58;100625.59;;;8.89
73734;BMP280;62039;50.000;9.064;2023-02-19T04:41:25;100616.13;;;8.88
73734;BMP280;62039;50.000;9.064;2023-02-19T04:43:52;100631.78;;;8.88
73734;BMP280;62039;50.000;9.064;2023-02-19T04:46:18;100630.00;;;8.89
73734;BMP280;62039;50.000;9.064;2023-02-19T04:48:45;100627.53;;;8.87
73734;BMP280;62039;50.000;9.064;2023-02-19T04:51:12;100626.00;;;8.85
73734;BMP280;62039;50.000;9.064;2023-02-19T04:53:39;100630.41;;;8.84
73734;BMP280;62039;50.000;9.064;2023-02-19T04:56:08;100632.03;;;8.85
73734;BMP280;62039;50.000;9.064;2023-02-19T04:58:35;100642.47;;;8.85
73734;BMP280;62039;50.000;9.064;2023-02-19T05:01:02;100645.06;;;8.85
73734;BMP280;62039;50.000;9.064;2023-02-19T05:03:29;100634.50;;;8.87
73734;BMP280;62039;50.000;9.064;2023-02-19T05:05:55;100633.56;;;8.88
73734;BMP280;62039;50.000;9.064;2023-02-19T05:08:22;100645.47;;;8.90
73734;BMP280;62039;50.000;9.064;2023-02-19T05:10:48;100635.03;;;8.90
73734;BMP280;62039;50.000;9.064;2023-02-19T05:13:16;100635.84;;;8.91
73734;BMP280;62039;50.000;9.064;2023-02-19T05:15:53;100633.56;;;8.88
73734;BMP280;62039;50.000;9.064;2023-02-19T05:18:20;100649.31;;;8.86
73734;BMP280;62039;50.000;9.064;2023-02-19T05:20:46;100646.84;;;8.85
73734;BMP280;62039;50.000;9.064;2023-02-19T05:23:13;100648.78;;;8.83
73734;BMP280;62039;50.000;9.064;2023-02-19T05:25:39;100649.63;;;8.83
73734;BMP280;62039;50.000;9.064;2023-02-19T05:28:06;100649.63;;;8.83
73734;BMP280;62039;50.000;9.064;2023-02-19T05:30:34;100652.22;;;8.83
73734;BMP280;62039;50.000;9.064;2023-02-19T05:33:00;100656.44;;;8.84
73734;BMP280;62039;50.000;9.064;2023-02-19T05:35:27;100660.03;;;8.83
73734;BMP280;62039;50.000;9.064;2023-02-19T05:37:53;100655.78;;;8.82
73734;BMP280;62039;50.000;9.064;2023-02-19T05:40:20;100668.81;;;8.82
73734;BMP280;62039;50.000;9.064;2023-02-19T05:42:46;100655.78;;;8.82
73734;BMP280;62039;50.000;9.064;2023-02-19T05:45:13;100656.63;;;8.83
73734;BMP280;62039;50.000;9.064;2023-02-19T05:47:41;100656.44;;;8.84
73734;BMP280;62039;50.000;9.064;2023-02-19T05:50:07;100657.28;;;8.85
73734;BMP280;62039;50.000;9.064;2023-02-19T05:52:34;100652.88;;;8.85
73734;BMP280;62039;50.000;9.064;2023-02-19T05:55:00;100663.31;;;8.85
73734;BMP280;62039;50.000;9.064;2023-02-19T05:57:27;100661.66;;;8.84
73734;BMP280;62039;50.000;9.064;2023-02-19T05:59:55;100669.47;;;8.84
73734;BMP280;62039;50.000;9.064;2023-02-19T06:02:21;100672.06;;;8.84
73734;BMP280;62039;50.000;9.064;2023-02-19T06:04:49;100672.91;;;8.85
73734;BMP280;62039;50.000;9.064;2023-02-19T06:07:16;100679.91;;;8.84
73734;BMP280;62039;50.000;9.064;2023-02-19T06:09:42;100678.94;;;8.85
73734;BMP280;62039;50.000;9.064;2023-02-19T06:12:09;100684.97;;;8.86
73734;BMP280;62039;50.000;9.064;2023-02-19T06:14:35;100679.75;;;8.86
73734;BMP280;62039;50.000;9.064;2023-02-19T06:17:02;100693.63;;;8.86
73734;BMP280;62039;50.000;9.064;2023-02-19T06:19:28;100700.47;;;8.87
73734;BMP280;62039;50.000;9.064;2023-02-19T06:21:56;100705.00;;;8.85
73734;BMP280;62039;50.000;9.064;2023-02-19T06:24:23;100699.78;;;8.85
73734;BMP280;62039;50.000;9.064;2023-02-19T06:26:49;100700.47;;;8.87
73734;BMP280;62039;50.000;9.064;2023-02-19T06:29:16;100715.16;;;8.88
73734;BMP280;62039;50.000;9.064;2023-02-19T06:31:43;100714.19;;;8.89
73734;BMP280;62039;50.000;9.064;2023-02-19T06:34:10;100711.28;;;8.92
73734;BMP280;62039;50.000;9.064;2023-02-19T06:36:36;100712.13;;;8.93
73734;BMP280;62039;50.000;9.064;2023-02-19T06:39:04;100716.38;;;8.94
73734;BMP280;62039;50.000;9.064;2023-02-19T06:41:32;100725.28;;;8.91
73734;BMP280;62039;50.000;9.064;2023-02-19T06:43:59;100728.03;;;8.90
73734;BMP280;62039;50.000;9.064;2023-02-19T06:46:25;100723.09;;;8.87
73734;BMP280;62039;50.000;9.064;2023-02-19T06:48:52;100729.41;;;8.84
73734;BMP280;62039;50.000;9.064;2023-02-19T06:51:19;100743.41;;;8.83
73734;BMP280;62039;50.000;9.064;2023-02-19T06:53:45;100733.00;;;8.83
73734;BMP280;62039;50.000;9.064;2023-02-19T06:56:24;100742.72;;;8.81
73734;BMP280;62039;50.000;9.064;2023-02-19T06:58:52;100736.81;;;8.79
73734;BMP280;62039;50.000;9.064;2023-02-19T07:01:19;100737.94;;;8.77
73734;BMP280;62039;50.000;9.064;2023-02-19T07:03:46;100743.13;;;8.77
73734;BMP280;62039;50.000;9.064;2023-02-19T07:06:12;100744.09;;;8.76
73734;BMP280;62039;50.000;9.064;2023-02-19T07:08:39;100766.72;;;8.75
73734;BMP280;62039;50.000;9.064;2023-02-19T07:11:05;100756.97;;;8.77
73734;BMP280;62039;50.000;9.064;2023-02-19T07:13:33;100762.16;;;8.77
73734;BMP280;62039;50.000;9.064;2023-02-19T07:16:03;100767.25;;;8.79
73734;BMP280;62039;50.000;9.064;2023-02-19T07:18:30;100764.50;;;8.80
73734;BMP280;62039;50.000;9.064;2023-02-19T07:21:01;100770.41;;;8.82
73734;BMP280;62039;50.000;9.064;2023-02-19T07:23:28;100777.28;;;8.83
73734;BMP280;62039;50.000;9.064;2023-02-19T07:25:54;100774.38;;;8.86
73734;BMP280;62039;50.000;9.064;2023-02-19T07:28:21;100770.13;;;8.85
73734;BMP280;62039;50.000;9.064;2023-02-19T07:30:49;100770.25;;;8.84
73734;BMP280;62039;50.000;9.064;2023-02-19T07:33:15;100776.59;;;8.81
73734;BMP280;62039;50.000;9.064;2023-02-19T07:35:44;100776.59;;;8.81
73734;BMP280;62039;50.000;9.064;2023-02-19T07:38:11;100779.19;;;8.81
73734;BMP280;62039;50.000;9.064;2023-02-19T07:40:37;100786.31;;;8.79
73734;BMP280;62039;50.000;9.064;2023-02-19T07:43:04;100801.00;;;8.80
73734;BMP280;62039;50.000;9.064;2023-02-19T07:45:30;100793.28;;;8.79
73734;BMP280;62039;50.000;9.064;2023-02-19T07:47:58;100806.31;;;8.79
73734;BMP280;62039;50.000;9.064;2023-02-19T07:50:25;100803.59;;;8.80
73734;BMP280;62039;50.000;9.064;2023-02-19T07:52:51;100809.34;;;8.84
73734;BMP280;62039;50.000;9.064;2023-02-19T07:55:18;100818.81;;;8.85
73734;BMP280;62039;50.000;9.064;2023-02-19T07:57:44;100812.75;;;8.84
73734;BMP280;62039;50.000;9.064;2023-02-19T08:00:12;100812.75;;;8.84
73734;BMP280;62039;50.000;9.064;2023-02-19T08:02:39;100819.09;;;8.82
73734;BMP280;62039;50.000;9.064;2023-02-19T08:05:07;100815.66;;;8.81
73734;BMP280;62039;50.000;9.064;2023-02-19T08:07:34;100815.78;;;8.80
73734;BMP280;62039;50.000;9.064;2023-02-19T08:10:02;100821.69;;;8.82
73734;BMP280;62039;50.000;9.064;2023-02-19T08:12:29;100826.78;;;8.83
73734;BMP280;62039;50.000;9.064;2023-02-19T08:14:55;100827.56;;;8.84
73734;BMP280;62039;50.000;9.064;2023-02-19T08:17:22;100832.66;;;8.85
73734;BMP280;62039;50.000;9.064;2023-02-19T08:19:48;100831.56;;;8.88
73734;BMP280;62039;50.000;9.064;2023-02-19T08:22:16;100836.66;;;8.89
73734;BMP280;62039;50.000;9.064;2023-02-19T08:24:43;100845.97;;;8.92
73734;BMP280;62039;50.000;9.064;2023-02-19T08:27:09;100846.78;;;8.92
73734;BMP280;62039;50.000;9.064;2023-02-19T08:29:36;100851.03;;;8.93
73734;BMP280;62039;50.000;9.064;2023-02-19T08:32:03;100862.41;;;8.92
73734;BMP280;62039;50.000;9.064;2023-02-19T08:34:29;100858.03;;;8.93
73734;BMP280;62039;50.000;9.064;2023-02-19T08:36:56;100868.19;;;8.96
73734;BMP280;62039;50.000;9.064;2023-02-19T08:39:24;100879.16;;;8.99
73734;BMP280;62039;50.000;9.064;2023-02-19T08:41:50;100878.34;;;8.99
73734;BMP280;62039;50.000;9.064;2023-02-19T08:44:17;100892.06;;;9.01
73734;BMP280;62039;50.000;9.064;2023-02-19T08:46:44;100894.38;;;9.04
73734;BMP280;62039;50.000;9.064;2023-02-19T08:49:10;100896.84;;;9.06
73734;BMP280;62039;50.000;9.064;2023-02-19T08:51:37;100902.88;;;9.06
73734;BMP280;62039;50.000;9.064;2023-02-19T08:54:03;100918.41;;;9.08
73734;BMP280;62039;50.000;9.064;2023-02-19T08:56:31;100919.09;;;9.10
73734;BMP280;62039;50.000;9.064;2023-02-19T08:58:58;100903.47;;;9.10
73734;BMP280;62039;50.000;9.064;2023-02-19T09:01:24;100915.50;;;9.11
73734;BMP280;62039;50.000;9.064;2023-02-19T09:03:51;100925.94;;;9.11
73734;BMP280;62039;50.000;9.064;2023-02-19T09:06:19;100934.75;;;9.10
73734;BMP280;62039;50.000;9.064;2023-02-19T09:08:46;100918.28;;;9.09
73734;BMP280;62039;50.000;9.064;2023-02-19T09:11:12;100928.53;;;9.11
73734;BMP280;62039;50.000;9.064;2023-02-19T09:13:41;100927.59;;;9.12
73734;BMP280;62039;50.000;9.064;2023-02-19T09:16:08;100928.41;;;9.12
73734;BMP280;62039;50.000;9.064;2023-02-19T09:18:35;100934.31;;;9.14
73734;BMP280;62039;50.000;9.064;2023-02-19T09:21:03;100929.09;;;9.14
73734;BMP280;62039;50.000;9.064;2023-02-19T09:23:31;100921.16;;;9.16
73734;BMP280;62039;50.000;9.064;2023-02-19T09:25:59;100924.44;;;9.18
73734;BMP280;62039;50.000;9.064;2023-02-19T09:28:26;100925.13;;;9.20
73734;BMP280;62039;50.000;9.064;2023-02-19T09:30:54;100926.66;;;9.22
73734;BMP280;62039;50.000;9.064;2023-02-19T09:33:20;100923.75;;;9.25
73734;BMP280;62039;50.000;9.064;2023-02-19T09:35:47;100926.22;;;9.27
73734;BMP280;62039;50.000;9.064;2023-02-19T09:38:13;100918.41;;;9.27
73734;BMP280;62039;50.000;9.064;2023-02-19T09:40:40;100914.84;;;9.28
73734;BMP280;62039;50.000;9.064;2023-02-19T09:43:07;100906.19;;;9.27
73734;BMP280;62039;50.000;9.064;2023-02-19T09:45:37;100914.00;;;9.27
73734;BMP280;62039;50.000;9.064;2023-02-19T09:48:06;100915.53;;;9.30
73734;BMP280;62039;50.000;9.064;2023-02-19T09:50:35;100920.31;;;9.34
73734;BMP280;62039;50.000;9.064;2023-02-19T09:53:05;100918.25;;;9.38
73734;BMP280;62039;50.000;9.064;2023-02-19T09:55:37;100922.38;;;9.40
73734;BMP280;62039;50.000;9.064;2023-02-19T09:58:10;100927.19;;;9.45
73734;BMP280;62039;50.000;9.064;2023-02-19T10:00:40;100930.22;;;9.50
73734;BMP280;62039;50.000;9.064;2023-02-19T10:03:13;100930.63;;;9.55
73734;BMP280;62039;50.000;9.064;2023-02-19T10:05:40;100928.69;;;9.57
73734;BMP280;62039;50.000;9.064;2023-02-19T10:08:11;100932.69;;;9.61
73734;BMP280;62039;50.000;9.064;2023-02-19T10:10:40;100937.78;;;9.63
73734;BMP280;62039;50.000;9.064;2023-02-19T10:13:16;100947.25;;;9.64
73734;BMP280;62039;50.000;9.064;2023-02-19T10:15:46;100942.88;;;9.64
73734;BMP280;62039;50.000;9.064;2023-02-19T10:18:18;100952.19;;;9.67
73734;BMP280;62039;50.000;9.064;2023-02-19T10:20:46;100945.06;;;9.69
73734;BMP280;62039;50.000;9.064;2023-02-19T10:23:13;100951.63;;;9.73
73734;BMP280;62039;50.000;9.064;2023-02-19T10:25:44;100964.41;;;9.76
73734;BMP280;62039;50.000;9.064;2023-02-19T10:28:14;100968.50;;;9.78
73734;BMP280;62039;50.000;9.064;2023-02-19T10:30:40;100976.19;;;9.80
73734;BMP280;62039;50.000;9.064;2023-02-19T10:33:10;100970.84;;;9.81
73734;BMP280;62039;50.000;9.064;2023-02-19T10:35:51;100983.22;;;9.79
73734;BMP280;62039;50.000;9.064;2023-02-19T10:38:19;100981.41;;;9.80
73734;BMP280;62039;50.000;9.064;2023-02-19T10:40:47;100989.38;;;9.78
73734;BMP280;62039;50.000;9.064;2023-02-19T10:43:24;101002.44;;;9.78
73734;BMP280;62039;50.000;9.064;2023-02-19T10:45:51;100999.16;;;9.76
73734;BMP280;62039;50.000;9.064;2023-02-19T10:48:21;101007.94;;;9.75
73734;BMP280;62039;50.000;9.064;2023-02-19T10:50:51;101010.81;;;9.72
73734;BMP280;62039;50.000;9.064;2023-02-19T10:53:20;101026.63;;;9.71
73734;BMP280;62039;50.000;9.064;2023-02-19T10:55:46;101016.31;;;9.69
73734;BMP280;62039;50.000;9.064;2023-02-19T10:58:22;101034.59;;;9.69
73734;BMP280;62039;50.000;9.064;2023-02-19T11:01:08;101048.72;;;9.67
73734;BMP280;62039;50.000;9.064;2023-02-19T11:03:35;101048.03;;;9.65
73734;BMP280;62039;50.000;9.064;2023-02-19T11:06:05;101053.53;;;9.62
73734;BMP280;62039;50.000;9.064;2023-02-19T11:08:44;101051.16;;;9.59
73734;BMP280;62039;50.000;9.064;2023-02-19T11:11:21;101048.81;;;9.56
73734;BMP280;62039;50.000;9.064;2023-02-19T11:13:48;101048.81;;;9.56
73734;BMP280;62039;50.000;9.064;2023-02-19T11:16:15;101051.31;;;9.57
73734;BMP280;62039;50.000;9.064;2023-02-19T11:18:43;101053.63;;;9.60
73734;BMP280;62039;50.000;9.064;2023-02-19T11:21:24;101070.00;;;9.62
73734;BMP280;62039;50.000;9.064;2023-02-19T11:23:51;101063.53;;;9.66
73734;BMP280;62039;50.000;9.064;2023-02-19T11:26:19;101059.84;;;9.69
73734;BMP280;62039;50.000;9.064;2023-02-19T11:28:54;101056.13;;;9.71
73734;BMP280;62039;50.000;9.064;2023-02-19T11:31:23;101058.59;;;9.73
73734;BMP280;62039;50.000;9.064;2023-02-19T11:33:58;101056.00;;;9.73
73734;BMP280;62039;50.000;9.064;2023-02-19T11:36:31;101056.69;;;9.75
73734;BMP280;62039;50.000;9.064;2023-02-19T11:39:06;101055.59;;;9.77
73734;BMP280;62039;50.000;9.064;2023-02-19T11:41:57;101057.91;;;9.80
73734;BMP280;62039;50.000;9.064;2023-02-19T11:44:35;101051.63;;;9.83
73734;BMP280;62039;50.000;9.064;2023-02-19T11:50:08;101068.50;;;9.89
73734;BMP280;62039;50.000;9.064;2023-02-19T11:52:44;101064.94;;;9.90
73734;BMP280;62039;50.000;9.064;2023-02-19T11:55:37;101066.03;;;9.87
73734;BMP280;62039;50.000;9.064;2023-02-19T11:58:21;101065.91;;;9.89
73734;BMP280;62039;50.000;9.064;2023-02-19T12:00:54;101063.28;;;9.89
73734;BMP280;62039;50.000;9.064;2023-02-19T12:03:37;101065.59;;;9.92
73734;BMP280;62039;50.000;9.064;2023-02-19T12:06:21;101067.25;;;9.93
73734;BMP280;62039;50.000;9.064;2023-02-19T12:09:04;101060.38;;;9.92
73734;BMP280;62039;50.000;9.064;2023-02-19T12:11:51;101050.94;;;9.91
73734;BMP280;62039;50.000;9.064;2023-02-19T12:14:40;101052.41;;;9.93
73734;BMP280;62039;50.000;9.064;2023-02-19T12:17:14;101053.81;;;9.97
73734;BMP280;62039;50.000;9.064;2023-02-19T12:19:52;101062.31;;;9.99
73734;BMP280;62039;50.000;9.064;2023-02-19T12:22:27;101058.47;;;10.03
73734;BMP280;62039;50.000;9.064;2023-02-19T12:25:13;101056.25;;;10.08
73734;BMP280;62039;50.000;9.064;2023-02-19T12:27:52;101054.19;;;10.12
73734;BMP280;62039;50.000;9.064;2023-02-19T12:30:34;101055.56;;;10.16
73734;BMP280;62039;50.000;9.064;2023-02-19T12:36:02;101049.09;;;10.20
73734;BMP280;62039;50.000;9.064;2023-02-19T12:38:35;101051.44;;;10.23
73734;BMP280;62039;50.000;9.064;2023-02-19T12:41:18;101055.41;;;10.27
73734;BMP280;62039;50.000;9.064;2023-02-19T12:43:51;101056.09;;;10.29
73734;BMP280;62039;50.000;9.064;2023-02-19T12:46:22;101064.63;;;10.31
73734;BMP280;62039;50.000;9.064;2023-02-19T12:48:53;101054.00;;;10.33
73734;BMP280;62039;50.000;9.064;2023-02-19T12:51:25;101065.03;;;10.36
73734;BMP280;62039;50.000;9.064;2023-02-19T12:53:55;101048.38;;;10.37
73734;BMP280;62039;50.000;9.064;2023-02-19T12:56:29;101036.81;;;10.40
73734;BMP280;62039;50.000;9.064;2023-02-19T12:58:59;101028.00;;;10.41
73734;BMP280;62039;50.000;9.064;2023-02-19T13:01:29;101025.97;;;10.44
73734;BMP280;62039;50.000;9.064;2023-02-19T13:04:10;101020.44;;;10.47
73734;BMP280;62039;50.000;9.064;2023-02-19T13:06:41;101018.38;;;10.51
73734;BMP280;62039;50.000;9.064;2023-02-19T13:09:12;101011.19;;;10.53
73734;BMP280;62039;50.000;9.064;2023-02-19T13:11:44;101021.50;;;10.54
73734;BMP280;62039;50.000;9.064;2023-02-19T13:14:19;101027.69;;;10.53
73734;BMP280;62039;50.000;9.064;2023-02-19T13:16:49;101025.38;;;10.50
73734;BMP280;62039;50.000;9.064;2023-02-19T13:19:18;101021.56;;;10.45
73734;BMP280;62039;50.000;9.064;2023-02-19T13:21:49;101028.84;;;10.41
73734;BMP280;62039;50.000;9.064;2023-02-19T13:24:24;101026.38;;;10.40
73734;BMP280;62039;50.000;9.064;2023-02-19T13:27:03;101028.97;;;10.40
73734;BMP280;62039;50.000;9.064;2023-02-19T13:29:40;101036.97;;;10.38
73734;BMP280;62039;50.000;9.064;2023-02-19T13:32:23;101032.03;;;10.35
73734;BMP280;62039;50.000;9.064;2023-02-19T13:35:01;101031.50;;;10.32
73734;BMP280;62039;50.000;9.064;2023-02-19T13:37:32;101025.44;;;10.31
73734;BMP280;62039;50.000;9.064;2023-02-19T13:40:02;101028.06;;;10.31
73734;BMP280;62039;50.000;9.064;2023-02-19T13:42:33;101034.25;;;10.30
73734;BMP280;62039;50.000;9.064;2023-02-19T13:45:00;101043.88;;;10.30
73734;BMP280;62039;50.000;9.064;2023-02-19T13:47:48;101051.13;;;10.26
73734;BMP280;62039;50.000;9.064;2023-02-19T13:50:21;101048.53;;;10.26
73734;BMP280;62039;50.000;9.064;2023-02-19T13:52:48;101051.13;;;10.26
73734;BMP280;62039;50.000;9.064;2023-02-19T13:55:44;101059.28;;;10.23
73734;BMP280;62039;50.000;9.064;2023-02-19T13:58:38;101057.63;;;10.22
73734;BMP280;62039;50.000;9.064;2023-02-19T14:01:17;101058.44;;;10.23
73734;BMP280;62039;50.000;9.064;2023-02-19T14:03:46;101058.16;;;10.26
73734;BMP280;62039;50.000;9.064;2023-02-19T14:06:13;101058.00;;;10.27
73734;BMP280;62039;50.000;9.064;2023-02-19T14:08:49;101063.94;;;10.29
73734;BMP280;62039;50.000;9.064;2023-02-19T14:11:17;101065.59;;;10.30
73734;BMP280;62039;50.000;9.064;2023-02-19T14:16:54;101064.31;;;10.34
73734;BMP280;62039;50.000;9.064;2023-02-19T14:19:45;101066.66;;;10.37
73734;BMP280;62039;50.000;9.064;2023-02-19T14:25:49;101068.31;;;10.38
73734;BMP280;62039;50.000;9.064;2023-02-19T14:28:24;101071.47;;;10.42
73734;BMP280;62039;50.000;9.064;2023-02-19T14:30:53;101072.97;;;10.44
73734;BMP280;62039;50.000;9.064;2023-02-19T14:33:23;101073.38;;;10.49
73734;BMP280;62039;50.000;9.064;2023-02-19T14:35:53;101078.06;;;10.55
73734;BMP280;62039;50.000;9.064;2023-02-19T14:38:24;101083.81;;;10.59